createdAt,value
2023-05-30T00:00:37.105Z,4.38
2023-05-30T00:03:38.801Z,4.15
2023-05-30T00:06:40.620Z,4.50
2023-05-30T00:09:42.397Z,4.10
2023-05-30T00:12:47.829Z,4.45
2023-05-30T00:15:50.388Z,4.75
2023-05-30T00:18:55.037Z,4.38
2023-05-30T00:21:56.651Z,4.68
2023-05-30T00:25:00.883Z,4.40
2023-05-30T00:28:03.092Z,4.43
2023-05-30T00:31:05.599Z,4.70
2023-05-30T00:34:07.313Z,4.43
2023-05-30T00:37:10.200Z,4.72
2023-05-30T00:40:13.202Z,4.20
2023-05-30T00:43:16.923Z,4.38
2023-05-30T00:46:18.682Z,4.22
2023-05-30T00:49:21.006Z,4.40
2023-05-30T00:52:22.807Z,4.43
2023-05-30T00:55:26.991Z,4.50
2023-05-30T00:58:28.865Z,4.57
2023-05-30T01:01:33.436Z,4.60
2023-05-30T01:04:35.495Z,4.40
2023-05-30T01:07:37.875Z,4.40
2023-05-30T01:10:39.683Z,4.50
2023-05-30T01:13:49.147Z,4.70
2023-05-30T01:17:05.538Z,4.35
2023-05-30T01:20:12.576Z,4.53
2023-05-30T01:23:21.840Z,4.55
2023-05-30T01:26:39.979Z,4.23
2023-05-30T01:29:43.630Z,4.20
2023-05-30T01:32:46.668Z,4.55
2023-05-30T01:35:49.092Z,4.00
2023-05-30T01:38:50.793Z,4.30
2023-05-30T01:41:55.553Z,4.30
2023-05-30T01:45:11.480Z,4.40
2023-05-30T01:48:36.183Z,4.28
2023-05-30T01:51:45.484Z,4.00
2023-05-30T01:54:57.448Z,4.38
2023-05-30T01:57:59.957Z,4.33
2023-05-30T02:01:02.731Z,4.40
2023-05-30T02:04:05.399Z,4.32
2023-05-30T02:07:07.353Z,4.53
2023-05-30T02:10:09.533Z,4.40
2023-05-30T02:13:11.428Z,4.40
2023-05-30T02:16:13.898Z,4.40
2023-05-30T02:19:15.731Z,4.50
2023-05-30T02:22:22.001Z,4.22
2023-05-30T02:25:24.808Z,3.97
2023-05-30T02:28:26.588Z,4.03
2023-05-30T02:31:28.283Z,3.83
2023-05-30T02:34:29.904Z,3.80
2023-05-30T02:37:31.692Z,4.30
2023-05-30T02:40:33.400Z,4.05
2023-05-30T02:43:35.052Z,3.90
2023-05-30T02:46:36.872Z,4.20
2023-05-30T02:49:38.476Z,4.30
2023-05-30T02:52:40.153Z,3.90
2023-05-30T02:55:43.941Z,4.35
2023-05-30T02:58:45.699Z,4.17
2023-05-30T03:01:47.363Z,4.15
2023-05-30T03:04:49.163Z,4.05
2023-05-30T03:07:53.055Z,4.22
2023-05-30T03:10:55.850Z,3.95
2023-05-30T03:13:57.656Z,4.13
2023-05-30T03:16:59.531Z,4.00
2023-05-30T03:20:01.698Z,4.80
2023-05-30T03:23:03.884Z,4.00
2023-05-30T03:26:05.711Z,4.25
2023-05-30T03:29:08.291Z,4.10
2023-05-30T03:32:09.994Z,4.25
2023-05-30T03:35:11.843Z,4.00
2023-05-30T03:38:13.503Z,4.25
2023-05-30T03:41:15.371Z,4.20
2023-05-30T03:44:17.156Z,4.07
2023-05-30T03:47:18.829Z,4.20
2023-05-30T03:50:20.606Z,4.43
2023-05-30T03:53:22.260Z,4.18
2023-05-30T03:56:24.089Z,3.90
2023-05-30T03:59:25.697Z,3.83
2023-05-30T04:02:27.471Z,4.00
2023-05-30T04:05:29.326Z,3.88
2023-05-30T04:08:31.293Z,3.85
2023-05-30T04:11:33.142Z,4.35
2023-05-30T04:14:34.768Z,4.07
2023-05-30T04:17:36.865Z,4.35
2023-05-30T04:20:38.625Z,4.60
2023-05-30T04:23:44.046Z,4.35
2023-05-30T04:26:49.680Z,4.07
2023-05-30T04:29:51.792Z,4.20
2023-05-30T04:32:53.969Z,4.15
2023-05-30T04:35:57.238Z,4.07
2023-05-30T04:38:59.371Z,4.20
2023-05-30T04:42:01.602Z,3.88
2023-05-30T04:45:05.710Z,3.83
2023-05-30T04:48:08.784Z,5.10
2023-05-30T04:51:10.457Z,4.40
2023-05-30T04:54:16.634Z,4.28
2023-05-30T04:57:18.339Z,3.90
2023-05-30T05:00:22.069Z,4.00
2023-05-30T05:03:23.789Z,4.10
2023-05-30T05:06:25.642Z,4.28
2023-05-30T05:09:27.344Z,3.72
2023-05-30T05:12:29.039Z,3.70
2023-05-30T05:15:30.716Z,4.10
2023-05-30T05:18:32.390Z,4.25
2023-05-30T05:21:34.070Z,4.13
2023-05-30T05:24:35.698Z,4.10
2023-05-30T05:27:40.347Z,4.00
2023-05-30T05:30:42.071Z,4.40
2023-05-30T05:33:43.804Z,4.28
2023-05-30T05:36:45.506Z,4.20
2023-05-30T05:39:47.159Z,4.30
2023-05-30T05:42:48.798Z,4.38
2023-05-30T05:45:52.317Z,3.90
2023-05-30T05:48:55.618Z,4.13
2023-05-30T05:51:57.604Z,4.25
2023-05-30T05:54:59.298Z,4.20
2023-05-30T05:58:01.223Z,4.15
2023-05-30T06:01:03.918Z,4.10
2023-05-30T06:04:12.383Z,4.28
2023-05-30T06:07:14.594Z,4.13
2023-05-30T06:10:16.451Z,5.07
2023-05-30T06:13:18.108Z,4.40
2023-05-30T06:16:19.963Z,4.37
2023-05-30T06:19:21.684Z,4.45
2023-05-30T06:22:23.267Z,4.22
2023-05-30T06:25:27.180Z,3.90
2023-05-30T06:28:28.849Z,4.57
2023-05-30T06:31:30.515Z,4.00
2023-05-30T06:34:32.463Z,4.63
2023-05-30T06:37:34.802Z,4.30
2023-05-30T06:40:36.500Z,4.30
2023-05-30T06:43:38.129Z,4.60
2023-05-30T06:46:40.018Z,4.17
2023-05-30T06:49:41.666Z,4.18
2023-05-30T06:52:43.257Z,4.40
2023-05-30T06:55:44.960Z,4.75
2023-05-30T06:58:46.652Z,4.60
2023-05-30T07:01:48.394Z,5.07
2023-05-30T07:04:52.835Z,4.78
2023-05-30T07:07:54.676Z,4.93
2023-05-30T07:10:56.728Z,4.85
2023-05-30T07:13:58.532Z,4.72
2023-05-30T07:17:00.459Z,4.70
2023-05-30T07:20:02.728Z,4.95
2023-05-30T07:23:04.445Z,4.95
2023-05-30T07:26:06.153Z,4.53
2023-05-30T07:29:07.797Z,4.70
2023-05-30T07:32:11.914Z,4.73
2023-05-30T07:35:13.737Z,4.43
2023-05-30T07:38:15.508Z,4.70
2023-05-30T07:41:17.245Z,4.88
2023-05-30T07:44:18.976Z,5.10
2023-05-30T07:47:20.702Z,4.80
2023-05-30T07:50:22.577Z,4.78
2023-05-30T07:53:26.682Z,5.05
2023-05-30T07:56:28.366Z,5.13
2023-05-30T07:59:30.086Z,4.93
2023-05-30T08:02:31.803Z,5.10
2023-05-30T08:05:33.603Z,4.82
2023-05-30T08:08:35.228Z,4.88
2023-05-30T08:11:36.881Z,5.15
2023-05-30T08:14:40.203Z,5.18
2023-05-30T08:17:42.444Z,4.80
2023-05-30T08:20:44.395Z,5.07
2023-05-30T08:23:47.518Z,4.85
2023-05-30T08:26:49.718Z,5.22
2023-05-30T08:29:51.476Z,4.78
2023-05-30T08:32:53.274Z,4.80
2023-05-30T08:35:54.980Z,4.78
2023-05-30T08:39:13.872Z,4.78
2023-05-30T08:42:17.170Z,5.20
2023-05-30T08:45:20.985Z,5.00
2023-05-30T08:48:25.819Z,4.53
2023-05-30T08:51:30.414Z,4.70
2023-05-30T08:54:41.139Z,4.88
2023-05-30T08:58:06.296Z,4.85
2023-05-30T09:01:10.806Z,4.90
2023-05-30T09:04:14.323Z,5.00
2023-05-30T09:07:16.901Z,4.63
2023-05-30T09:10:22.245Z,5.10
2023-05-30T09:13:23.913Z,4.70
2023-05-30T09:16:27.465Z,4.30
2023-05-30T09:19:29.171Z,4.57
2023-05-30T09:22:31.498Z,4.28
2023-05-30T09:25:46.929Z,4.80
2023-05-30T09:28:49.623Z,5.07
2023-05-30T09:31:53.056Z,4.68
2023-05-30T09:34:58.670Z,4.60
2023-05-30T09:38:05.851Z,4.50
2023-05-30T09:41:07.714Z,4.70
2023-05-30T09:44:11.722Z,4.90
2023-05-30T09:47:13.714Z,4.90
2023-05-30T09:50:20.097Z,5.33
2023-05-30T09:53:21.865Z,4.75
2023-05-30T09:56:42.521Z,5.30
2023-05-30T09:59:44.362Z,5.22
2023-05-30T10:02:57.036Z,5.55
2023-05-30T10:05:58.948Z,5.10
2023-05-30T10:09:01.168Z,5.50
2023-05-30T10:12:04.613Z,5.45
2023-05-30T10:15:10.685Z,5.38
2023-05-30T10:18:17.281Z,5.50
2023-05-30T10:21:23.305Z,5.13
2023-05-30T10:24:25.214Z,5.65
2023-05-30T10:27:31.832Z,5.80
2023-05-30T10:30:34.953Z,5.22
2023-05-30T10:33:56.490Z,5.00
2023-05-30T10:37:00.852Z,5.30
2023-05-30T10:40:17.600Z,4.97
2023-05-30T10:43:31.361Z,5.97
2023-05-30T10:46:57.355Z,4.70
2023-05-30T10:50:04.420Z,5.30
2023-05-30T10:53:21.972Z,5.10
2023-05-30T10:56:35.568Z,5.10
2023-05-30T10:59:37.186Z,5.05
2023-05-30T11:02:39.923Z,4.63
2023-05-30T11:05:41.989Z,4.85
2023-05-30T11:08:44.527Z,4.80
2023-05-30T11:11:47.685Z,5.20
2023-05-30T11:14:57.367Z,5.20
2023-05-30T11:17:59.469Z,4.60
2023-05-30T11:21:01.753Z,4.65
2023-05-30T11:24:04.834Z,5.00
2023-05-30T11:27:09.207Z,4.80
2023-05-30T11:30:20.969Z,5.10
2023-05-30T11:33:25.625Z,5.00
2023-05-30T11:36:28.307Z,5.20
2023-05-30T11:39:33.110Z,4.60
2023-05-30T11:42:35.521Z,4.45
2023-05-30T11:45:37.629Z,4.28
2023-05-30T11:48:39.653Z,4.78
2023-05-30T11:51:41.446Z,4.30
2023-05-30T11:54:43.285Z,4.53
2023-05-30T11:57:44.963Z,4.60
2023-05-30T12:00:48.568Z,4.40
2023-05-30T12:03:50.949Z,4.68
2023-05-30T12:06:53.431Z,4.55
2023-05-30T12:09:55.254Z,4.50
2023-05-30T12:12:57.052Z,4.50
2023-05-30T12:16:01.269Z,4.45
2023-05-30T12:19:03.587Z,4.80
2023-05-30T12:22:06.917Z,4.65
2023-05-30T12:25:10.444Z,4.27
2023-05-30T12:28:13.741Z,4.22
2023-05-30T12:31:25.051Z,4.22
2023-05-30T12:34:39.743Z,4.38
2023-05-30T12:37:41.485Z,4.18
2023-05-30T12:40:46.753Z,4.20
2023-05-30T12:43:51.879Z,4.07
2023-05-30T12:47:02.306Z,4.20
2023-05-30T12:50:04.418Z,4.10
2023-05-30T12:53:06.198Z,4.00
2023-05-30T12:56:07.990Z,3.73
2023-05-30T12:59:09.644Z,4.03
2023-05-30T13:02:12.213Z,4.10
2023-05-30T13:05:14.240Z,4.10
2023-05-30T13:08:16.558Z,4.05
2023-05-30T13:11:18.315Z,4.20
2023-05-30T13:14:19.996Z,4.25
2023-05-30T13:17:23.718Z,4.10
2023-05-30T13:20:25.550Z,4.10
2023-05-30T13:23:27.209Z,4.18
2023-05-30T13:26:28.819Z,3.80
2023-05-30T13:29:31.071Z,3.83
2023-05-30T13:32:32.774Z,4.05
2023-05-30T13:35:34.416Z,4.32
2023-05-30T13:38:36.626Z,4.20
2023-05-30T13:41:38.334Z,4.20
2023-05-30T13:44:40.344Z,4.55
2023-05-30T13:47:42.236Z,4.80
2023-05-30T13:50:44.077Z,4.07
2023-05-30T13:54:00.904Z,3.95
2023-05-30T13:57:04.485Z,4.10
2023-05-30T14:00:07.834Z,4.07
2023-05-30T14:03:10.366Z,4.50
2023-05-30T14:06:12.372Z,4.30
2023-05-30T14:09:14.453Z,4.10
2023-05-30T14:12:16.228Z,4.33
2023-05-30T14:15:18.862Z,3.70
2023-05-30T14:18:20.787Z,4.55
2023-05-30T14:21:22.777Z,4.45
2023-05-30T14:24:24.449Z,5.00
2023-05-30T14:27:26.148Z,4.70
2023-05-30T14:30:28.186Z,4.85
2023-05-30T14:33:29.984Z,4.93
2023-05-30T14:36:32.076Z,5.28
2023-05-30T14:39:33.951Z,5.05
2023-05-30T14:42:36.160Z,5.10
2023-05-30T14:45:38.012Z,4.47
2023-05-30T14:48:39.654Z,4.95
2023-05-30T14:51:41.330Z,5.30
2023-05-30T14:54:43.075Z,4.57
2023-05-30T14:57:44.805Z,4.87
2023-05-30T15:00:46.649Z,4.70
2023-05-30T15:03:48.519Z,4.32
2023-05-30T15:06:50.550Z,4.13
2023-05-30T15:09:52.314Z,3.97
2023-05-30T15:12:53.989Z,4.30
2023-05-30T15:15:55.928Z,5.70
2023-05-30T15:18:57.656Z,4.82
2023-05-30T15:22:00.968Z,4.57
2023-05-30T15:25:03.144Z,5.38
2023-05-30T15:28:04.744Z,4.97
2023-05-30T15:31:06.628Z,4.55
2023-05-30T15:34:08.310Z,5.45
2023-05-30T15:37:10.220Z,5.25
2023-05-30T15:40:13.139Z,4.82
2023-05-30T15:43:14.925Z,4.77
2023-05-30T15:46:19.107Z,4.60
2023-05-30T15:49:20.981Z,5.50
2023-05-30T15:52:22.703Z,4.88
2023-05-30T15:55:24.612Z,4.40
2023-05-30T15:58:26.280Z,4.10
2023-05-30T16:01:27.918Z,4.00
2023-05-30T16:04:29.701Z,3.92
2023-05-30T16:07:31.351Z,4.20
2023-05-30T16:10:33.069Z,3.95
2023-05-30T16:13:36.431Z,6.37
2023-05-30T16:16:38.215Z,8.25
2023-05-30T16:19:39.892Z,11.93
2023-05-30T16:22:42.824Z,7.00
2023-05-30T16:25:44.457Z,5.60
2023-05-30T16:28:46.275Z,4.90
2023-05-30T16:31:48.980Z,5.30
2023-05-30T16:34:50.784Z,5.38
2023-05-30T16:37:52.523Z,5.18
2023-05-30T16:40:57.681Z,5.20
2023-05-30T16:44:03.441Z,4.87
2023-05-30T16:47:05.671Z,5.40
2023-05-30T16:50:08.127Z,5.43
2023-05-30T16:53:09.854Z,5.22
2023-05-30T16:56:17.679Z,5.28
2023-05-30T16:59:19.589Z,4.97
2023-05-30T17:02:21.310Z,4.90
2023-05-30T17:05:23.112Z,8.38
2023-05-30T17:08:24.847Z,5.47
2023-05-30T17:11:26.641Z,4.90
2023-05-30T17:14:28.270Z,4.67
2023-05-30T17:17:29.908Z,5.20
2023-05-30T17:20:32.145Z,5.38
2023-05-30T17:23:33.854Z,4.90
2023-05-30T17:26:36.768Z,4.70
2023-05-30T17:29:38.590Z,5.23
2023-05-30T17:32:40.557Z,4.93
2023-05-30T17:35:42.329Z,5.32
2023-05-30T17:38:43.995Z,5.32
2023-05-30T17:41:47.542Z,4.93
2023-05-30T17:44:51.654Z,5.00
2023-05-30T17:47:53.424Z,4.85
2023-05-30T17:50:55.129Z,5.10
2023-05-30T17:53:56.870Z,5.20
2023-05-30T17:56:58.568Z,4.90
2023-05-30T18:00:00.275Z,4.80
2023-05-30T18:03:04.021Z,4.68
2023-05-30T18:06:09.768Z,4.60
2023-05-30T18:09:17.348Z,4.57
2023-05-30T18:12:19.065Z,4.45
2023-05-30T18:15:21.734Z,4.20
2023-05-30T18:18:23.603Z,4.80
2023-05-30T18:21:25.379Z,4.72
2023-05-30T18:24:27.072Z,4.50
2023-05-30T18:27:28.868Z,5.00
2023-05-30T18:30:30.598Z,4.53
2023-05-30T18:33:33.441Z,4.32
2023-05-30T18:36:35.186Z,4.95
2023-05-30T18:39:36.852Z,4.90
2023-05-30T18:42:38.551Z,5.13
2023-05-30T18:45:40.294Z,4.70
2023-05-30T18:48:45.843Z,5.18
2023-05-30T18:51:48.924Z,4.82
2023-05-30T18:54:50.579Z,4.57
2023-05-30T18:57:52.879Z,4.20
2023-05-30T19:00:58.221Z,5.20
2023-05-30T19:03:59.989Z,4.53
2023-05-30T19:07:05.037Z,4.72
2023-05-30T19:10:07.996Z,4.50
2023-05-30T19:13:09.602Z,4.50
2023-05-30T19:16:11.243Z,5.10
2023-05-30T19:19:13.184Z,4.68
2023-05-30T19:22:14.832Z,4.57
2023-05-30T19:25:16.585Z,4.30
2023-05-30T19:28:18.389Z,4.53
2023-05-30T19:31:21.678Z,4.70
2023-05-30T19:34:24.402Z,4.20
2023-05-30T19:37:26.637Z,4.60
2023-05-30T19:40:28.666Z,4.50
2023-05-30T19:43:30.656Z,4.65
2023-05-30T19:46:32.316Z,4.00
2023-05-30T19:49:35.843Z,4.10
2023-05-30T19:52:37.483Z,4.30
2023-05-30T19:55:39.113Z,4.03
2023-05-30T19:58:41.000Z,4.35
2023-05-30T20:01:42.677Z,4.23
2023-05-30T20:04:44.399Z,4.35
2023-05-30T20:07:46.066Z,4.47
2023-05-30T20:10:47.853Z,4.47
2023-05-30T20:13:49.463Z,4.15
2023-05-30T20:16:52.611Z,4.90
2023-05-30T20:19:54.258Z,4.07
2023-05-30T20:22:56.774Z,4.20
2023-05-30T20:25:58.532Z,4.07
2023-05-30T20:29:00.183Z,4.55
2023-05-30T20:32:01.992Z,4.47
2023-05-30T20:35:03.749Z,4.57
2023-05-30T20:38:05.392Z,4.72
2023-05-30T20:41:10.389Z,4.72
2023-05-30T20:44:12.106Z,4.47
2023-05-30T20:47:13.818Z,4.90
2023-05-30T20:50:15.554Z,4.70
2023-05-30T20:53:17.284Z,4.88
2023-05-30T20:56:19.299Z,4.63
2023-05-30T20:59:21.205Z,4.72
2023-05-30T21:02:23.186Z,4.80
2023-05-30T21:05:24.948Z,4.70
2023-05-30T21:08:26.542Z,5.20
2023-05-30T21:11:28.229Z,4.80
2023-05-30T21:14:29.872Z,4.50
2023-05-30T21:17:31.518Z,5.03
2023-05-30T21:20:33.296Z,4.75
2023-05-30T21:23:35.094Z,4.55
2023-05-30T21:26:36.927Z,4.93
2023-05-30T21:29:38.561Z,5.00
2023-05-30T21:32:40.328Z,4.43
2023-05-30T21:35:41.954Z,4.53
2023-05-30T21:38:43.559Z,5.13
2023-05-30T21:41:45.374Z,4.93
2023-05-30T21:44:47.716Z,5.03
2023-05-30T21:47:49.455Z,5.03
2023-05-30T21:50:51.457Z,5.10
2023-05-30T21:54:01.291Z,5.10
2023-05-30T21:57:03.832Z,4.88
2023-05-30T22:00:07.327Z,4.80
2023-05-30T22:03:09.095Z,4.57
2023-05-30T22:06:12.365Z,4.63
2023-05-30T22:09:14.228Z,4.90
2023-05-30T22:12:15.881Z,4.75
2023-05-30T22:15:17.643Z,4.50
2023-05-30T22:18:19.351Z,4.50
2023-05-30T22:21:21.062Z,4.47
2023-05-30T22:24:22.752Z,4.57
2023-05-30T22:27:24.443Z,4.20
2023-05-30T22:30:26.237Z,4.63
2023-05-30T22:33:27.910Z,4.27
2023-05-30T22:36:29.614Z,4.30
2023-05-30T22:39:31.254Z,4.28
2023-05-30T22:42:35.782Z,4.50
2023-05-30T22:45:37.436Z,4.18
2023-05-30T22:48:39.038Z,4.80
2023-05-30T22:51:41.776Z,4.57
2023-05-30T22:54:43.491Z,4.50
2023-05-30T22:57:45.116Z,4.45
2023-05-30T23:00:46.759Z,4.68
2023-05-30T23:03:49.064Z,4.40
2023-05-30T23:06:51.257Z,4.55
2023-05-30T23:09:52.962Z,4.70
2023-05-30T23:12:54.538Z,4.20
2023-05-30T23:15:56.172Z,4.22
2023-05-30T23:18:57.971Z,4.27
2023-05-30T23:21:59.708Z,4.10
2023-05-30T23:25:01.297Z,3.85
2023-05-30T23:28:02.912Z,4.30
2023-05-30T23:31:04.831Z,4.00
2023-05-30T23:34:06.554Z,3.97
2023-05-30T23:37:08.257Z,4.45
2023-05-30T23:40:10.227Z,3.95
2023-05-30T23:43:11.984Z,4.03
2023-05-30T23:46:13.711Z,4.00
2023-05-30T23:49:16.720Z,3.73
2023-05-30T23:52:18.420Z,4.00
2023-05-30T23:55:20.161Z,4.00
2023-05-30T23:58:22.030Z,3.88
